createdAt,value
2022-11-22T00:02:08.517Z,99693.41
2022-11-22T00:04:36.828Z,99694.41
2022-11-22T00:07:05.533Z,99686.91
2022-11-22T00:09:32.945Z,99684.25
2022-11-22T00:12:00.366Z,99683.56
2022-11-22T00:14:27.802Z,99683.56
2022-11-22T00:16:55.196Z,99680.63
2022-11-22T00:19:22.588Z,99683.56
2022-11-22T00:21:49.989Z,99682.25
2022-11-22T00:24:18.720Z,99673.78
2022-11-22T00:26:46.126Z,99673.09
2022-11-22T00:29:14.437Z,99663.81
2022-11-22T00:31:41.859Z,99665.78
2022-11-22T00:34:09.257Z,99655.31
2022-11-22T00:36:36.664Z,99651.00
2022-11-22T00:39:04.185Z,99647.34
2022-11-22T00:41:32.956Z,99646.69
2022-11-22T00:44:00.379Z,99646.00
2022-11-22T00:46:28.040Z,99653.00
2022-11-22T00:48:55.441Z,99661.34
2022-11-22T00:51:22.949Z,99659.66
2022-11-22T00:53:50.344Z,99663.63
2022-11-22T00:56:17.722Z,99662.47
2022-11-22T00:58:46.420Z,99666.44
2022-11-22T01:01:13.853Z,99656.34
2022-11-22T01:03:41.275Z,99651.47
2022-11-22T01:06:08.702Z,99651.63
2022-11-22T01:08:36.105Z,99649.66
2022-11-22T01:11:03.552Z,99645.34
2022-11-22T01:13:30.960Z,99636.69
2022-11-22T01:16:01.179Z,99628.38
2022-11-22T01:18:28.580Z,99620.59
2022-11-22T01:20:55.979Z,99622.25
2022-11-22T01:23:23.372Z,99630.53
2022-11-22T01:25:50.840Z,99632.72
2022-11-22T01:28:18.345Z,99634.88
2022-11-22T01:30:45.747Z,99629.56
2022-11-22T01:33:14.449Z,99625.38
2022-11-22T01:35:41.873Z,99626.75
2022-11-22T01:38:09.295Z,99625.91
2022-11-22T01:40:36.762Z,99622.56
2022-11-22T01:43:04.407Z,99636.34
2022-11-22T01:45:39.066Z,99629.84
2022-11-22T01:48:07.652Z,99631.22
2022-11-22T01:50:37.092Z,99644.97
2022-11-22T01:53:06.885Z,99647.47
2022-11-22T01:55:34.810Z,99646.47
2022-11-22T01:58:02.227Z,99653.63
2022-11-22T02:00:29.635Z,99650.66
2022-11-22T02:02:59.290Z,99637.97
2022-11-22T02:05:27.987Z,99644.66
2022-11-22T02:07:59.903Z,99645.50
2022-11-22T02:10:28.634Z,99640.19
2022-11-22T02:12:56.832Z,99642.25
2022-11-22T02:15:24.289Z,99637.34
2022-11-22T02:17:51.701Z,99636.19
2022-11-22T02:20:19.300Z,99632.22
2022-11-22T02:22:48.706Z,99622.56
2022-11-22T02:25:20.695Z,99628.91
2022-11-22T02:27:49.430Z,99623.25
2022-11-22T02:30:17.788Z,99622.09
2022-11-22T02:32:45.279Z,99609.78
2022-11-22T02:35:18.058Z,99607.31
2022-11-22T02:37:45.632Z,99594.69
2022-11-22T02:40:14.571Z,99599.16
2022-11-22T02:42:42.536Z,99598.31
2022-11-22T02:45:11.759Z,99596.69
2022-11-22T02:47:39.186Z,99605.31
2022-11-22T02:50:07.472Z,99602.81
2022-11-22T02:52:34.893Z,99593.84
2022-11-22T02:55:02.297Z,99594.69
2022-11-22T02:57:29.740Z,99586.88
2022-11-22T02:59:57.154Z,99580.38
2022-11-22T03:02:25.886Z,99584.06
2022-11-22T03:04:53.299Z,99583.19
2022-11-22T03:07:20.844Z,99582.06
2022-11-22T03:09:48.368Z,99577.06
2022-11-22T03:12:15.797Z,99577.22
2022-11-22T03:14:43.704Z,99575.06
2022-11-22T03:17:11.158Z,99575.06
2022-11-22T03:19:39.891Z,99568.09
2022-11-22T03:22:07.315Z,99564.44
2022-11-22T03:24:34.742Z,99568.09
2022-11-22T03:27:02.158Z,99568.75
2022-11-22T03:29:29.898Z,99569.25
2022-11-22T03:31:57.526Z,99568.09
2022-11-22T03:34:24.933Z,99572.41
2022-11-22T03:36:53.629Z,99575.72
2022-11-22T03:39:21.016Z,99578.50
2022-11-22T03:41:48.500Z,99572.84
2022-11-22T03:44:15.904Z,99573.31
2022-11-22T03:46:43.360Z,99569.97
2022-11-22T03:49:11.830Z,99566.66
2022-11-22T03:51:39.269Z,99570.97
2022-11-22T03:54:07.995Z,99567.78
2022-11-22T03:56:35.424Z,99569.63
2022-11-22T03:59:02.836Z,99581.06
2022-11-22T04:01:30.373Z,99574.94
2022-11-22T04:03:57.943Z,99563.63
2022-11-22T04:06:25.390Z,99569.63
2022-11-22T04:08:52.832Z,99557.19
2022-11-22T04:11:21.600Z,99559.59
2022-11-22T04:14:06.413Z,99548.94
2022-11-22T04:16:33.831Z,99555.59
2022-11-22T04:19:01.247Z,99554.78
2022-11-22T04:21:36.662Z,99557.28
2022-11-22T04:24:18.584Z,99551.59
2022-11-22T04:26:47.298Z,99547.78
2022-11-22T04:29:14.738Z,99543.31
2022-11-22T04:31:59.874Z,99543.16
2022-11-22T04:34:27.315Z,99546.13
2022-11-22T04:36:54.728Z,99553.09
2022-11-22T04:39:22.143Z,99553.44
2022-11-22T04:42:13.608Z,99554.09
2022-11-22T04:44:43.231Z,99551.28
2022-11-22T04:47:10.784Z,99554.78
2022-11-22T04:49:38.184Z,99549.63
2022-11-22T04:52:23.450Z,99545.13
2022-11-22T04:54:50.907Z,99548.28
2022-11-22T04:57:19.617Z,99549.47
2022-11-22T04:59:47.017Z,99546.78
2022-11-22T05:02:14.442Z,99553.94
2022-11-22T05:04:44.089Z,99559.25
2022-11-22T05:07:15.160Z,99562.91
2022-11-22T05:09:42.570Z,99560.09
2022-11-22T05:12:09.968Z,99552.28
2022-11-22T05:14:38.703Z,99560.75
2022-11-22T05:17:06.115Z,99559.94
2022-11-22T05:19:33.528Z,99554.78
2022-11-22T05:22:01.148Z,99564.25
2022-11-22T05:24:27.627Z,99549.16
2022-11-22T05:26:55.043Z,99541.78
2022-11-22T05:29:22.629Z,99541.44
2022-11-22T05:31:51.625Z,99540.94
2022-11-22T05:34:19.073Z,99538.09
2022-11-22T05:36:46.491Z,99534.09
2022-11-22T05:39:13.900Z,99539.56
2022-11-22T05:41:55.618Z,99544.72
2022-11-22T05:44:23.167Z,99537.72
2022-11-22T05:46:51.876Z,99543.34
2022-11-22T05:49:19.280Z,99540.03
2022-11-22T05:51:46.713Z,99541.72
2022-11-22T05:54:14.127Z,99554.19
2022-11-22T05:56:41.569Z,99554.31
2022-11-22T05:59:08.999Z,99552.34
2022-11-22T06:01:36.449Z,99548.50
2022-11-22T06:04:05.205Z,99551.97
2022-11-22T06:06:32.647Z,99549.69
2022-11-22T06:09:00.105Z,99548.34
2022-11-22T06:11:28.230Z,99542.63
2022-11-22T06:14:03.146Z,99546.28
2022-11-22T06:16:30.636Z,99555.09
2022-11-22T06:18:58.064Z,99559.59
2022-11-22T06:21:28.273Z,99561.06
2022-11-22T06:23:55.842Z,99565.25
2022-11-22T06:26:23.803Z,99566.75
2022-11-22T06:28:51.355Z,99571.22
2022-11-22T06:31:19.621Z,99570.72
2022-11-22T06:33:47.059Z,99570.41
2022-11-22T06:36:15.178Z,99579.53
2022-11-22T06:38:44.200Z,99580.38
2022-11-22T06:41:12.147Z,99574.72
2022-11-22T06:43:43.784Z,99577.72
2022-11-22T06:46:16.038Z,99581.19
2022-11-22T06:48:43.664Z,99584.38
2022-11-22T06:51:12.278Z,99581.56
2022-11-22T06:53:47.322Z,99598.13
2022-11-22T06:56:18.418Z,99589.28
2022-11-22T06:58:46.077Z,99591.22
2022-11-22T07:01:15.070Z,99588.88
2022-11-22T07:03:42.905Z,99592.19
2022-11-22T07:06:12.649Z,99594.34
2022-11-22T07:08:40.147Z,99581.88
2022-11-22T07:11:08.514Z,99590.81
2022-11-22T07:13:37.328Z,99605.47
2022-11-22T07:16:05.711Z,99603.19
2022-11-22T07:18:33.212Z,99617.75
2022-11-22T07:21:01.477Z,99618.53
2022-11-22T07:23:29.932Z,99623.22
2022-11-22T07:25:57.372Z,99617.59
2022-11-22T07:28:24.791Z,99619.09
2022-11-22T07:30:53.526Z,99623.72
2022-11-22T07:33:21.015Z,99621.06
2022-11-22T07:35:48.417Z,99625.22
2022-11-22T07:38:15.853Z,99621.59
2022-11-22T07:40:43.297Z,99629.56
2022-11-22T07:43:10.737Z,99626.22
2022-11-22T07:45:39.193Z,99628.56
2022-11-22T07:48:08.200Z,99617.41
2022-11-22T07:50:35.630Z,99620.25
2022-11-22T07:53:03.079Z,99623.88
2022-11-22T07:55:31.361Z,99619.41
2022-11-22T07:57:59.313Z,99608.13
2022-11-22T08:00:27.191Z,99599.34
2022-11-22T08:02:54.681Z,99593.31
2022-11-22T08:05:23.403Z,99587.19
2022-11-22T08:07:52.542Z,99586.34
2022-11-22T08:10:20.014Z,99586.34
2022-11-22T08:12:47.418Z,99579.03
2022-11-22T08:15:15.469Z,99579.03
2022-11-22T08:17:42.879Z,99582.38
2022-11-22T08:20:10.614Z,99576.22
2022-11-22T08:22:39.572Z,99577.06
2022-11-22T08:25:12.283Z,99582.38
2022-11-22T08:27:41.073Z,99577.38
2022-11-22T08:30:08.865Z,99570.41
2022-11-22T08:32:36.396Z,99571.38
2022-11-22T08:35:03.837Z,99566.75
2022-11-22T08:37:31.269Z,99558.09
2022-11-22T08:39:59.987Z,99556.75
2022-11-22T08:42:27.538Z,99560.91
2022-11-22T08:44:55.469Z,99570.59
2022-11-22T08:47:23.019Z,99570.41
2022-11-22T08:49:50.483Z,99577.88
2022-11-22T08:52:17.922Z,99583.38
2022-11-22T08:54:45.378Z,99574.03
2022-11-22T08:57:14.099Z,99581.03
2022-11-22T08:59:41.619Z,99580.72
2022-11-22T09:02:09.875Z,99582.38
2022-11-22T09:04:37.390Z,99601.13
2022-11-22T09:09:52.238Z,99621.59
2022-11-22T09:12:21.958Z,99628.91
2022-11-22T09:14:49.588Z,99634.22
2022-11-22T09:17:18.222Z,99632.16
2022-11-22T09:19:45.885Z,99637.13
2022-11-22T09:22:13.288Z,99630.84
2022-11-22T09:24:40.724Z,99628.50
2022-11-22T09:27:08.213Z,99634.94
2022-11-22T09:29:36.956Z,99625.00
2022-11-22T09:32:04.431Z,99619.53
2022-11-22T09:34:31.832Z,99625.16
2022-11-22T09:36:59.257Z,99628.78
2022-11-22T09:39:26.771Z,99619.13
2022-11-22T09:42:30.159Z,99628.72
2022-11-22T09:45:17.659Z,99625.22
2022-11-22T09:47:48.736Z,99629.03
2022-11-22T09:50:19.547Z,99633.81
2022-11-22T09:52:49.014Z,99630.31
2022-11-22T09:55:23.885Z,99627.66
2022-11-22T09:57:56.847Z,99632.00
2022-11-22T10:00:26.229Z,99629.34
2022-11-22T10:03:00.671Z,99632.97
2022-11-22T10:05:30.563Z,99634.97
2022-11-22T10:08:00.420Z,99638.63
2022-11-22T10:10:28.864Z,99630.50
2022-11-22T10:12:58.198Z,99625.50
2022-11-22T10:15:29.187Z,99628.97
2022-11-22T10:17:57.529Z,99636.78
2022-11-22T10:20:25.795Z,99631.63
2022-11-22T10:22:53.253Z,99634.13
2022-11-22T10:25:22.203Z,99626.31
2022-11-22T10:28:00.796Z,99632.47
2022-11-22T10:30:33.121Z,99634.66
2022-11-22T10:33:04.144Z,99626.84
2022-11-22T10:35:39.594Z,99623.19
2022-11-22T10:38:16.546Z,99631.31
2022-11-22T10:40:46.742Z,99627.84
2022-11-22T10:43:21.295Z,99632.81
2022-11-22T10:45:50.730Z,99637.31
2022-11-22T10:48:23.496Z,99625.19
2022-11-22T10:50:56.193Z,99635.47
2022-11-22T10:53:28.581Z,99634.50
2022-11-22T10:55:58.398Z,99627.00
2022-11-22T10:58:32.044Z,99618.19
2022-11-22T11:01:03.628Z,99622.84
2022-11-22T11:03:31.844Z,99619.31
2022-11-22T11:06:21.616Z,99630.81
2022-11-22T11:11:40.042Z,99628.47
2022-11-22T11:14:08.625Z,99628.31
2022-11-22T11:16:37.450Z,99629.13
2022-11-22T11:19:12.347Z,99617.84
2022-11-22T11:21:39.786Z,99624.13
2022-11-22T11:24:10.631Z,99618.81
2022-11-22T11:26:38.040Z,99619.66
2022-11-22T11:29:33.307Z,99617.00
2022-11-22T11:32:11.297Z,99617.84
2022-11-22T11:34:39.768Z,99617.97
2022-11-22T11:37:07.430Z,99610.00
2022-11-22T11:39:36.280Z,99612.16
2022-11-22T11:42:22.370Z,99610.84
2022-11-22T11:44:49.811Z,99605.69
2022-11-22T11:47:20.895Z,99593.56
2022-11-22T11:49:51.584Z,99602.03
2022-11-22T11:52:20.332Z,99605.69
2022-11-22T11:54:48.490Z,99608.19
2022-11-22T11:57:16.127Z,99608.34
2022-11-22T11:59:45.019Z,99608.53
2022-11-22T12:02:14.263Z,99608.34
2022-11-22T12:04:50.657Z,99613.75
2022-11-22T12:07:19.382Z,99610.78
2022-11-22T12:09:47.484Z,99611.81
2022-11-22T12:12:31.477Z,99612.50
2022-11-22T12:15:11.133Z,99603.84
2022-11-22T12:17:47.648Z,99609.84
2022-11-22T12:20:17.774Z,99607.84
2022-11-22T12:22:50.925Z,99602.22
2022-11-22T12:25:32.639Z,99601.41
2022-11-22T12:28:01.413Z,99602.22
2022-11-22T12:30:28.837Z,99593.69
2022-11-22T12:32:59.447Z,99591.00
2022-11-22T12:35:28.194Z,99594.97
2022-11-22T12:37:56.130Z,99587.53
2022-11-22T12:40:25.472Z,99571.31
2022-11-22T12:42:53.825Z,99567.78
2022-11-22T12:45:25.446Z,99565.19
2022-11-22T12:47:52.863Z,99567.69
2022-11-22T12:50:23.532Z,99585.13
2022-11-22T12:52:53.894Z,99590.97
2022-11-22T12:55:22.456Z,99594.75
2022-11-22T12:57:52.527Z,99604.75
2022-11-22T13:00:21.988Z,99587.97
2022-11-22T13:02:59.201Z,99591.13
2022-11-22T13:05:28.353Z,99588.28
2022-11-22T13:08:00.048Z,99588.81
2022-11-22T13:10:31.667Z,99584.97
2022-11-22T13:12:59.123Z,99581.81
2022-11-22T13:15:28.196Z,99585.13
2022-11-22T13:17:55.737Z,99530.44
2022-11-22T13:20:23.774Z,99573.66
2022-11-22T13:22:56.996Z,99574.84
2022-11-22T13:25:37.653Z,99568.66
2022-11-22T13:28:07.844Z,99565.19
2022-11-22T13:30:35.264Z,99570.84
2022-11-22T13:33:02.726Z,99566.16
2022-11-22T13:35:31.243Z,99580.81
2022-11-22T13:37:59.669Z,99590.63
2022-11-22T13:40:28.919Z,99585.81
2022-11-22T13:43:34.219Z,99589.78
2022-11-22T13:46:01.849Z,99594.94
2022-11-22T13:49:06.506Z,99598.09
2022-11-22T13:51:53.978Z,99590.44
2022-11-22T13:54:58.482Z,99586.78
2022-11-22T13:57:34.820Z,99587.78
2022-11-22T14:00:39.829Z,99580.78
2022-11-22T14:03:37.826Z,99578.97
2022-11-22T14:06:29.013Z,99567.66
2022-11-22T14:09:26.822Z,99568.78
2022-11-22T14:12:02.793Z,99571.47
2022-11-22T14:14:32.207Z,99570.44
2022-11-22T14:17:05.554Z,99573.09
2022-11-22T14:19:37.025Z,99572.91
2022-11-22T14:22:11.860Z,99577.88
2022-11-22T14:24:46.576Z,99582.38
2022-11-22T14:27:23.541Z,99582.84
2022-11-22T14:30:02.608Z,99592.50
2022-11-22T14:32:42.348Z,99596.13
2022-11-22T14:35:26.363Z,99595.31
2022-11-22T14:38:05.104Z,99590.31
2022-11-22T14:40:37.304Z,99578.69
2022-11-22T14:43:07.030Z,99587.66
2022-11-22T14:45:42.203Z,99588.66
2022-11-22T14:48:19.573Z,99595.47
2022-11-22T14:50:49.781Z,99598.78
2022-11-22T14:53:22.132Z,99593.97
2022-11-22T14:55:49.910Z,99591.16
2022-11-22T14:58:22.798Z,99591.31
2022-11-22T15:01:14.895Z,99587.50
2022-11-22T15:09:10.444Z,99591.31
2022-11-22T15:09:21.284Z,99582.50
2022-11-22T15:09:53.511Z,99580.03
2022-11-22T15:12:39.837Z,99594.13
2022-11-22T15:58:28.060Z,99623.63
2022-11-22T16:01:18.281Z,99626.28
2022-11-22T16:03:43.698Z,99626.28
2022-11-22T16:06:14.034Z,99624.94
2022-11-22T16:08:48.225Z,99629.91
2022-11-22T16:11:19.113Z,99634.41
2022-11-22T16:13:46.546Z,99627.25
2022-11-22T16:16:21.462Z,99630.44
2022-11-22T16:18:50.651Z,99642.22
2022-11-22T16:21:20.824Z,99641.38
2022-11-22T16:23:48.247Z,99636.38
2022-11-22T16:26:21.808Z,99630.91
2022-11-22T16:28:51.139Z,99633.56
2022-11-22T16:31:20.442Z,99630.22
2022-11-22T16:33:47.869Z,99630.91
2022-11-22T16:36:16.033Z,99633.03
2022-11-22T16:38:43.542Z,99629.25
2022-11-22T16:41:13.675Z,99629.66
2022-11-22T16:43:42.366Z,99626.34
2022-11-22T16:46:10.296Z,99622.38
2022-11-22T16:48:37.689Z,99627.38
2022-11-22T16:51:05.993Z,99634.69
2022-11-22T16:53:39.239Z,99629.38
2022-11-22T16:56:07.156Z,99640.97
2022-11-22T16:58:34.552Z,99647.00
2022-11-22T17:01:03.380Z,99647.81
2022-11-22T17:03:31.902Z,99659.44
2022-11-22T17:05:59.320Z,99655.28
2022-11-22T17:08:26.722Z,99662.09
2022-11-22T17:10:54.164Z,99671.09
2022-11-22T17:13:22.952Z,99672.91
2022-11-22T17:15:50.486Z,99672.22
2022-11-22T17:18:19.252Z,99674.88
2022-11-22T17:20:46.705Z,99679.22
2022-11-22T17:23:16.612Z,99671.41
2022-11-22T17:25:44.031Z,99666.59
2022-11-22T17:28:11.552Z,99673.91
2022-11-22T17:30:38.982Z,99671.41
2022-11-22T17:33:06.389Z,99670.91
2022-11-22T17:35:37.184Z,99676.56
2022-11-22T17:38:05.128Z,99677.56
2022-11-22T17:41:37.577Z,99682.72
2022-11-22T17:44:05.572Z,99683.03
2022-11-22T17:46:34.112Z,99683.03
2022-11-22T17:49:02.120Z,99683.72
2022-11-22T17:51:30.033Z,99690.19
2022-11-22T17:53:58.142Z,99688.19
2022-11-22T17:56:25.640Z,99673.91
2022-11-22T17:58:54.333Z,99680.72
2022-11-22T18:01:22.538Z,99691.16
2022-11-22T18:03:50.002Z,99694.16
2022-11-22T18:06:17.756Z,99698.31
2022-11-22T18:08:47.203Z,99703.47
2022-11-22T18:11:15.050Z,99708.47
2022-11-22T18:13:42.532Z,99709.78
2022-11-22T18:16:14.037Z,99711.44
2022-11-22T18:18:56.336Z,99709.78
2022-11-22T18:21:25.244Z,99721.44
2022-11-22T18:23:52.650Z,99729.09
2022-11-22T18:31:56.162Z,99728.38
2022-11-22T18:34:23.814Z,99727.72
2022-11-22T18:37:06.736Z,99727.72
2022-11-22T18:39:36.081Z,99731.69
2022-11-22T18:42:04.107Z,99723.34
2022-11-22T18:44:31.518Z,99723.63
2022-11-22T18:47:00.232Z,99727.94
2022-11-22T18:49:27.737Z,99730.38
2022-11-22T18:51:55.577Z,99739.50
2022-11-22T18:54:23.163Z,99725.50
2022-11-22T18:56:50.572Z,99718.44
2022-11-22T18:59:17.982Z,99716.34
2022-11-22T19:01:45.461Z,99718.53
2022-11-22T19:04:14.975Z,99715.66
2022-11-22T19:06:42.682Z,99713.91
2022-11-22T19:09:10.294Z,99728.09
2022-11-22T19:11:37.699Z,99721.13
2022-11-22T19:14:05.107Z,99726.59
2022-11-22T19:16:32.535Z,99723.56
2022-11-22T19:19:00.094Z,99719.69
2022-11-22T19:21:29.775Z,99730.16
2022-11-22T19:23:57.422Z,99731.16
2022-11-22T19:26:25.686Z,99739.97
2022-11-22T19:28:55.402Z,99744.84
2022-11-22T19:31:23.687Z,99748.69
2022-11-22T19:33:51.083Z,99743.69
2022-11-22T19:36:19.221Z,99757.34
2022-11-22T19:38:47.977Z,99759.88
2022-11-22T19:41:16.752Z,99758.56
2022-11-22T19:43:44.319Z,99756.59
2022-11-22T19:46:11.750Z,99751.59
2022-11-22T19:48:45.334Z,99758.06
2022-11-22T19:51:15.123Z,99752.91
2022-11-22T19:53:42.761Z,99759.88
2022-11-22T19:56:14.307Z,99761.53
2022-11-22T19:58:41.832Z,99751.81
2022-11-22T20:01:10.072Z,99748.59
2022-11-22T20:03:38.760Z,99744.91
2022-11-22T20:06:07.057Z,99749.41
2022-11-22T20:08:34.460Z,99756.38
2022-11-22T20:11:03.043Z,99750.22
2022-11-22T20:13:34.228Z,99754.72
2022-11-22T20:16:06.362Z,99749.72
2022-11-22T20:18:33.763Z,99747.72
2022-11-22T20:21:01.710Z,99758.34
2022-11-22T20:23:29.119Z,99753.19
2022-11-22T20:26:01.652Z,99763.00
2022-11-22T20:28:29.067Z,99762.13
2022-11-22T20:31:07.298Z,99764.19
2022-11-22T20:33:34.985Z,99761.38
2022-11-22T20:36:03.429Z,99766.19
2022-11-22T20:38:33.097Z,99767.03
2022-11-22T20:41:00.570Z,99768.69
2022-11-22T20:43:28.021Z,99759.88
2022-11-22T20:46:02.036Z,99755.25
2022-11-22T20:48:31.579Z,99760.06
2022-11-22T20:50:59.025Z,99754.72
2022-11-22T20:53:26.456Z,99746.75
2022-11-22T20:55:54.374Z,99750.22
2022-11-22T20:58:21.872Z,99752.22
2022-11-22T21:00:49.301Z,99752.53
2022-11-22T21:03:16.778Z,99750.72
2022-11-22T21:05:46.820Z,99755.03
2022-11-22T21:08:16.518Z,99749.72
2022-11-22T21:10:46.582Z,99737.28
2022-11-22T21:13:14.042Z,99748.59
2022-11-22T21:15:48.030Z,99745.91
2022-11-22T21:18:25.261Z,99752.06
2022-11-22T21:20:54.676Z,99754.06
2022-11-22T21:23:22.085Z,99764.03
2022-11-22T21:25:51.744Z,99763.16
2022-11-22T21:28:19.243Z,99766.19
2022-11-22T21:30:46.649Z,99762.72
2022-11-22T21:33:14.066Z,99754.22
2022-11-22T21:35:45.016Z,99760.19
2022-11-22T21:38:14.622Z,99751.41
2022-11-22T21:40:51.403Z,99760.34
2022-11-22T21:43:18.846Z,99759.22
2022-11-22T21:45:46.262Z,99755.91
2022-11-22T21:48:13.678Z,99759.38
2022-11-22T21:50:41.089Z,99749.72
2022-11-22T21:53:08.524Z,99750.38
2022-11-22T21:55:37.225Z,99748.44
2022-11-22T21:58:04.742Z,99752.06
2022-11-22T22:00:32.143Z,99755.56
2022-11-22T22:02:59.604Z,99758.56
2022-11-22T22:05:27.147Z,99750.38
2022-11-22T22:07:54.636Z,99751.09
2022-11-22T22:10:22.099Z,99747.38
2022-11-22T22:12:52.816Z,99750.69
2022-11-22T22:15:20.246Z,99750.69
2022-11-22T22:17:47.655Z,99761.63
2022-11-22T22:20:15.080Z,99762.91
2022-11-22T22:22:42.494Z,99761.91
2022-11-22T22:25:10.114Z,99762.25
2022-11-22T22:27:37.528Z,99755.41
2022-11-22T22:30:08.056Z,99753.56
2022-11-22T22:32:35.539Z,99743.25
2022-11-22T22:35:02.972Z,99751.84
2022-11-22T22:37:30.383Z,99755.13
2022-11-22T22:39:57.814Z,99757.41
2022-11-22T22:42:25.313Z,99757.75
2022-11-22T22:44:52.731Z,99760.66
2022-11-22T22:47:21.432Z,99762.44
2022-11-22T22:49:48.889Z,99759.81
2022-11-22T22:52:16.370Z,99756.56
2022-11-22T22:54:43.797Z,99769.00
2022-11-22T22:57:11.296Z,99758.34
2022-11-22T22:59:38.712Z,99753.19
2022-11-22T23:02:06.509Z,99757.16
2022-11-22T23:04:35.548Z,99758.34
2022-11-22T23:07:03.155Z,99756.38
2022-11-22T23:09:30.954Z,99760.03
2022-11-22T23:12:13.436Z,99756.22
2022-11-22T23:14:41.093Z,99755.19
2022-11-22T23:17:09.279Z,99751.53
2022-11-22T23:19:38.109Z,99747.06
2022-11-22T23:22:05.798Z,99751.84
2022-11-22T23:24:33.697Z,99756.88
2022-11-22T23:27:01.166Z,99750.88
2022-11-22T23:29:28.871Z,99749.72
2022-11-22T23:31:56.473Z,99749.56
2022-11-22T23:34:23.885Z,99749.03
2022-11-22T23:36:52.611Z,99746.84
2022-11-22T23:39:20.025Z,99749.81
2022-11-22T23:41:47.443Z,99754.81
2022-11-22T23:44:14.916Z,99753.47
2022-11-22T23:46:42.330Z,99758.47
2022-11-22T23:49:11.024Z,99747.84
2022-11-22T23:51:38.477Z,99755.13
2022-11-22T23:54:10.584Z,99753.16
2022-11-22T23:56:38.034Z,99753.31
2022-11-22T23:59:05.927Z,99745.50
